KDFI

Defiance Memorial Airport

Defiance, Ohio, USA
METAR KDFI 190253Z AUTO 21009KT 10SM CLR M06/M11 A3006 RMK AO2 SLP192 T10561111 58004
Observed Flight Rules
Jan-19 @ 02:53 UTC (54 minutes ago) Visual Flight Rules
Wind Visibility Clouds
210° at 9 knots 10 miles
  • Clear skies
Temperatures Readings
Current -6°C / 21°F
Dewpoint -11°C / 12°F
Humidity 68%
Altimeter 30.06" Hg
Pressure 1019.2 hPa
Elevation 219
METAR KDFI 190253Z AUTO 21009KT 10SM CLR M06/M11 A3006 RMK AO2 SLP192 T10561111 58004
Observed Flight Rules
Jan-19 @ 02:53 UTC
(54 minutes ago)
VFR
Wind Visibility
210° at 9 knots 10 miles
Clouds
  • Clear skies
Temperature Dewpoint
-6°C / 21°F -11°C / 12°F
Humidity Altimeter Pressure
68% 30.06" Hg 1019.2 hPa